createdAt,value
2017-12-29T00:02:27.292Z,-1.00
2017-12-29T00:04:55.552Z,-0.80
2017-12-29T00:07:23.880Z,-0.90
2017-12-29T00:09:51.372Z,-1.00
2017-12-29T00:12:18.891Z,-0.90
2017-12-29T00:14:46.392Z,-1.00
2017-12-29T00:17:13.888Z,-1.00
2017-12-29T00:19:41.404Z,-1.00
2017-12-29T00:22:08.899Z,-1.00
2017-12-29T00:24:36.421Z,-1.00
2017-12-29T00:27:03.925Z,-0.90
2017-12-29T00:29:31.447Z,-0.90
2017-12-29T00:31:58.931Z,-1.00
2017-12-29T00:34:27.220Z,-1.10
2017-12-29T00:36:54.723Z,-1.20
2017-12-29T00:39:22.220Z,-1.10
2017-12-29T00:41:50.514Z,-1.10
2017-12-29T00:44:18.787Z,-1.20
2017-12-29T00:46:47.079Z,-1.20
2017-12-29T00:49:14.572Z,-1.30
2017-12-29T00:51:42.090Z,-1.10
2017-12-29T00:54:09.606Z,-1.00
2017-12-29T00:56:37.136Z,-1.00
2017-12-29T00:59:04.651Z,-1.10
2017-12-29T01:01:32.924Z,-1.10
2017-12-29T01:04:01.212Z,-1.00
2017-12-29T01:06:29.489Z,-1.00
2017-12-29T01:08:57.755Z,-1.00
2017-12-29T01:11:26.044Z,-0.90
2017-12-29T01:13:54.306Z,-0.90
2017-12-29T01:16:22.605Z,-1.00
2017-12-29T01:18:50.886Z,-0.90
2017-12-29T01:21:18.389Z,-1.00
2017-12-29T01:23:45.920Z,-1.00
2017-12-29T01:26:13.425Z,-0.80
2017-12-29T01:28:40.949Z,-0.70
2017-12-29T01:31:08.456Z,-0.80
2017-12-29T01:33:36.736Z,-0.60
2017-12-29T01:36:04.247Z,-0.70
2017-12-29T01:38:31.744Z,-0.70
2017-12-29T01:40:59.256Z,-0.60
2017-12-29T01:43:26.758Z,-0.60
2017-12-29T01:45:54.276Z,-0.60
2017-12-29T01:48:21.770Z,-0.60
2017-12-29T01:50:49.271Z,-0.50
2017-12-29T01:53:16.791Z,-0.50
2017-12-29T01:55:44.293Z,-0.40
2017-12-29T01:58:11.823Z,-0.40
2017-12-29T02:00:39.323Z,-0.30
2017-12-29T02:03:06.829Z,-0.30
2017-12-29T02:05:34.355Z,-0.30
2017-12-29T02:08:01.857Z,-0.30
2017-12-29T02:10:29.368Z,-0.20
2017-12-29T02:12:56.863Z,-0.20
2017-12-29T02:15:24.360Z,-0.30
2017-12-29T02:17:52.646Z,-0.40
2017-12-29T02:20:20.142Z,-0.40
2017-12-29T02:22:47.680Z,-0.30
2017-12-29T02:25:15.172Z,-0.30
2017-12-29T02:27:42.685Z,-0.20
2017-12-29T02:30:10.179Z,-0.20
2017-12-29T02:32:37.692Z,-0.20
2017-12-29T02:35:05.953Z,-0.20
2017-12-29T02:37:33.458Z,-0.40
2017-12-29T02:40:00.981Z,-0.20
2017-12-29T02:42:29.257Z,-0.30
2017-12-29T02:44:57.545Z,-0.30
2017-12-29T02:47:25.808Z,-0.30
2017-12-29T02:49:53.307Z,-0.40
2017-12-29T02:52:20.835Z,-0.30
2017-12-29T02:54:49.106Z,-0.30
2017-12-29T02:57:17.392Z,-0.30
2017-12-29T02:59:45.655Z,-0.40
2017-12-29T03:02:13.148Z,-0.50
2017-12-29T03:04:40.668Z,-0.50
2017-12-29T03:07:08.164Z,-0.70
2017-12-29T03:09:35.680Z,-0.60
2017-12-29T03:12:03.177Z,-0.50
2017-12-29T03:14:31.452Z,-0.60
2017-12-29T03:16:59.713Z,-0.70
2017-12-29T03:19:28.002Z,-0.60
2017-12-29T03:21:56.272Z,-0.70
2017-12-29T03:24:24.537Z,-0.70
2017-12-29T03:26:52.056Z,-0.80
2017-12-29T03:29:19.548Z,-0.70
2017-12-29T03:31:47.073Z,-0.70
2017-12-29T03:34:14.569Z,-0.80
2017-12-29T03:36:42.079Z,-0.90
2017-12-29T03:39:09.584Z,-0.90
2017-12-29T03:41:37.085Z,-0.90
2017-12-29T03:44:04.600Z,-1.10
2017-12-29T03:46:32.091Z,-1.00
2017-12-29T03:49:00.393Z,-1.00
2017-12-29T03:51:27.904Z,-1.10
2017-12-29T03:53:55.404Z,-1.00
2017-12-29T03:56:22.927Z,-1.00
2017-12-29T03:58:50.431Z,-1.00
2017-12-29T04:01:17.948Z,-0.90
2017-12-29T04:03:45.470Z,-0.90
2017-12-29T04:06:12.990Z,-1.00
2017-12-29T04:08:41.256Z,-1.00
2017-12-29T04:11:09.511Z,-1.00
2017-12-29T04:13:37.029Z,-1.00
2017-12-29T04:16:04.524Z,-1.00
2017-12-29T04:18:32.042Z,-1.10
2017-12-29T04:20:59.540Z,-1.10
2017-12-29T04:23:27.047Z,-1.10
2017-12-29T04:25:54.539Z,-1.10
2017-12-29T04:28:22.032Z,-1.10
2017-12-29T04:30:49.543Z,-1.10
2017-12-29T04:33:17.035Z,-1.00
2017-12-29T04:35:44.542Z,-1.10
2017-12-29T04:38:12.022Z,-1.00
2017-12-29T04:40:39.514Z,-1.00
2017-12-29T04:43:07.027Z,-1.00
2017-12-29T04:45:34.515Z,-1.00
2017-12-29T04:48:02.031Z,-1.10
2017-12-29T04:50:30.287Z,-1.10
2017-12-29T04:52:57.784Z,-1.20
2017-12-29T04:55:25.332Z,-1.00
2017-12-29T04:57:52.804Z,-1.10
2017-12-29T05:00:20.323Z,-1.10
2017-12-29T05:02:47.825Z,-1.10
2017-12-29T05:05:15.312Z,-1.00
2017-12-29T05:07:42.818Z,-1.00
2017-12-29T05:10:11.071Z,-1.00
2017-12-29T05:12:38.584Z,-1.10
2017-12-29T05:15:06.082Z,-1.00
2017-12-29T05:17:34.034Z,-1.10
2017-12-29T05:20:01.532Z,-1.10
2017-12-29T05:22:29.799Z,-1.00
2017-12-29T05:24:57.323Z,-1.10
2017-12-29T05:27:24.825Z,-1.10
2017-12-29T05:29:52.335Z,-1.10
2017-12-29T05:32:19.828Z,-1.10
2017-12-29T05:34:47.341Z,-1.20
2017-12-29T05:37:14.834Z,-1.20
2017-12-29T05:39:42.332Z,-1.20
2017-12-29T05:42:10.616Z,-1.30
2017-12-29T05:44:38.913Z,-1.30
2017-12-29T05:47:06.399Z,-1.40
2017-12-29T05:49:33.890Z,-1.30
2017-12-29T05:52:01.383Z,-1.20
2017-12-29T05:54:28.904Z,-1.20
2017-12-29T05:56:56.402Z,-1.20
2017-12-29T05:59:23.920Z,-1.10
2017-12-29T06:01:51.420Z,-1.20
2017-12-29T06:04:18.916Z,-1.20
2017-12-29T06:06:46.431Z,-1.10
2017-12-29T06:09:13.927Z,-1.20
2017-12-29T06:11:41.447Z,-1.20
2017-12-29T06:14:09.707Z,-1.30
2017-12-29T06:16:37.991Z,-1.10
2017-12-29T06:19:06.247Z,-1.20
2017-12-29T06:21:33.743Z,-1.30
2017-12-29T06:24:01.259Z,-1.20
2017-12-29T06:26:28.756Z,-1.10
2017-12-29T06:28:57.040Z,-1.00
2017-12-29T06:31:24.530Z,-1.10
2017-12-29T06:33:52.048Z,-1.00
2017-12-29T06:36:20.311Z,-1.30
2017-12-29T06:38:48.577Z,-1.30
2017-12-29T06:41:16.093Z,-1.40
2017-12-29T06:43:43.584Z,-1.20
2017-12-29T06:46:11.097Z,-1.30
2017-12-29T06:48:38.592Z,-1.30
2017-12-29T06:51:06.141Z,-1.30
2017-12-29T06:53:33.990Z,-1.30
2017-12-29T06:56:01.492Z,-1.40
2017-12-29T06:58:29.011Z,-1.40
2017-12-29T07:00:56.559Z,-1.40
2017-12-29T07:03:24.741Z,-1.40
2017-12-29T07:05:52.300Z,-1.30
2017-12-29T07:08:19.912Z,-1.30
2017-12-29T07:10:48.308Z,-1.30
2017-12-29T07:13:16.628Z,-1.20
2017-12-29T07:15:44.130Z,-1.30
2017-12-29T07:18:11.645Z,-1.10
2017-12-29T07:20:39.196Z,-1.10
2017-12-29T07:23:06.673Z,-1.10
2017-12-29T07:25:34.609Z,-1.10
2017-12-29T07:28:02.906Z,-1.30
2017-12-29T07:30:30.420Z,-1.40
2017-12-29T07:32:57.925Z,-1.30
2017-12-29T07:35:25.450Z,-1.20
2017-12-29T07:37:52.952Z,-1.20
2017-12-29T07:40:21.221Z,-1.10
2017-12-29T07:42:48.752Z,-1.20
2017-12-29T07:45:17.009Z,-1.20
2017-12-29T07:47:44.527Z,-1.30
2017-12-29T07:50:12.023Z,-1.20
2017-12-29T07:52:39.551Z,-1.20
2017-12-29T07:55:07.052Z,-1.20
2017-12-29T07:57:34.553Z,-1.20
2017-12-29T08:00:02.064Z,-1.20
2017-12-29T08:02:29.563Z,-1.30
2017-12-29T08:04:57.089Z,-1.30
2017-12-29T08:07:24.593Z,-1.30
2017-12-29T08:09:52.096Z,-1.20
2017-12-29T08:12:19.615Z,-1.20
2017-12-29T08:14:47.126Z,-1.20
2017-12-29T08:17:14.684Z,-1.20
2017-12-29T08:19:42.207Z,-1.10
2017-12-29T08:22:09.720Z,-1.10
2017-12-29T08:24:38.010Z,-0.90
2017-12-29T08:27:06.276Z,-0.80
2017-12-29T08:29:33.811Z,-0.90
2017-12-29T08:32:01.317Z,-0.80
2017-12-29T08:34:28.842Z,-0.90
2017-12-29T08:36:56.347Z,-1.00
2017-12-29T08:39:23.909Z,-0.80
2017-12-29T08:41:51.445Z,-0.70
2017-12-29T08:44:19.710Z,-0.70
2017-12-29T08:46:48.000Z,-0.80
2017-12-29T08:49:15.518Z,-0.90
2017-12-29T08:51:43.043Z,-0.70
2017-12-29T08:54:10.548Z,-0.70
2017-12-29T08:56:38.041Z,-0.50
2017-12-29T08:59:06.360Z,-0.40
2017-12-29T09:01:33.832Z,-0.50
2017-12-29T09:04:01.372Z,-0.40
2017-12-29T09:06:28.881Z,-0.40
2017-12-29T09:08:56.436Z,-0.40
2017-12-29T09:11:23.966Z,-0.40
2017-12-29T09:13:51.469Z,-0.30
2017-12-29T09:16:19.759Z,-0.20
2017-12-29T09:18:48.025Z,-0.10
2017-12-29T09:21:16.293Z,-0.10
2017-12-29T09:23:44.568Z,0.00
2017-12-29T09:26:12.829Z,0.00
2017-12-29T09:28:40.344Z,-0.10
2017-12-29T09:31:07.844Z,0.00
2017-12-29T09:33:35.338Z,0.00
2017-12-29T09:36:03.621Z,0.10
2017-12-29T09:38:31.116Z,0.10
2017-12-29T09:40:58.640Z,0.10
2017-12-29T09:43:26.140Z,0.10
2017-12-29T09:45:53.655Z,0.10
2017-12-29T09:48:21.919Z,0.00
2017-12-29T09:50:50.184Z,0.00
2017-12-29T09:53:17.699Z,0.00
2017-12-29T09:55:45.198Z,0.10
2017-12-29T09:58:12.758Z,0.10
2017-12-29T10:00:40.257Z,0.10
2017-12-29T10:03:07.772Z,0.00
2017-12-29T10:05:35.264Z,0.00
2017-12-29T10:08:03.619Z,0.30
2017-12-29T10:10:31.174Z,0.20
2017-12-29T10:12:58.795Z,0.30
2017-12-29T10:15:26.325Z,0.30
2017-12-29T10:17:54.600Z,0.40
2017-12-29T10:20:23.149Z,0.30
2017-12-29T10:22:50.656Z,0.20
2017-12-29T10:25:18.173Z,0.30
2017-12-29T10:27:45.698Z,0.40
2017-12-29T10:30:13.196Z,0.60
2017-12-29T10:32:40.721Z,0.70
2017-12-29T10:35:08.211Z,0.80
2017-12-29T10:37:35.727Z,0.80
2017-12-29T10:40:03.220Z,0.70
2017-12-29T10:42:30.710Z,0.70
2017-12-29T10:44:58.994Z,0.80
2017-12-29T10:47:27.253Z,0.90
2017-12-29T10:49:54.780Z,0.80
2017-12-29T10:52:22.292Z,0.90
2017-12-29T10:54:50.612Z,0.90
2017-12-29T10:57:18.117Z,0.80
2017-12-29T10:59:46.391Z,0.90
2017-12-29T11:02:13.955Z,0.80
2017-12-29T11:04:41.447Z,0.80
2017-12-29T11:07:08.960Z,0.80
2017-12-29T11:09:36.467Z,0.80
2017-12-29T11:12:03.970Z,0.90
2017-12-29T11:14:31.494Z,0.90
2017-12-29T11:16:58.989Z,0.90
2017-12-29T11:19:26.539Z,1.00
2017-12-29T11:21:54.034Z,1.00
2017-12-29T11:24:22.320Z,1.00
2017-12-29T11:26:50.591Z,1.00
2017-12-29T11:29:18.867Z,0.90
2017-12-29T11:31:46.412Z,0.80
2017-12-29T11:34:13.915Z,0.90
2017-12-29T11:36:41.424Z,1.10
2017-12-29T11:39:08.916Z,1.20
2017-12-29T11:41:37.179Z,1.20
2017-12-29T11:44:05.477Z,1.30
2017-12-29T11:46:32.989Z,1.10
2017-12-29T11:49:00.518Z,1.10
2017-12-29T11:51:28.021Z,1.10
2017-12-29T11:53:55.520Z,1.30
2017-12-29T11:56:23.033Z,1.40
2017-12-29T11:58:50.525Z,1.40
2017-12-29T12:01:18.851Z,1.20
2017-12-29T12:03:46.348Z,1.20
2017-12-29T12:06:14.632Z,1.10
2017-12-29T12:08:42.887Z,1.20
2017-12-29T12:11:10.394Z,1.20
2017-12-29T12:13:38.767Z,1.30
2017-12-29T12:16:06.261Z,1.30
2017-12-29T12:18:33.784Z,1.40
2017-12-29T12:21:01.288Z,1.50
2017-12-29T12:23:28.806Z,1.50
2017-12-29T12:25:56.295Z,1.50
2017-12-29T12:28:23.808Z,1.60
2017-12-29T12:30:52.083Z,1.60
2017-12-29T12:33:20.341Z,1.60
2017-12-29T12:35:47.865Z,1.50
2017-12-29T12:38:15.470Z,1.60
2017-12-29T12:40:43.005Z,1.60
2017-12-29T12:43:10.524Z,1.60
2017-12-29T12:45:38.020Z,1.60
2017-12-29T12:48:05.536Z,1.60
2017-12-29T12:50:33.045Z,1.60
2017-12-29T12:53:00.553Z,1.70
2017-12-29T12:55:28.044Z,1.70
2017-12-29T12:57:55.542Z,1.70
2017-12-29T13:00:23.056Z,1.70
2017-12-29T13:02:50.556Z,1.80
2017-12-29T13:05:18.057Z,1.90
2017-12-29T13:07:45.574Z,2.10
2017-12-29T13:10:13.070Z,2.20
2017-12-29T13:12:40.850Z,2.10
2017-12-29T13:15:08.367Z,2.10
2017-12-29T13:17:36.632Z,2.10
2017-12-29T13:20:04.141Z,2.00
2017-12-29T13:22:31.703Z,2.10
2017-12-29T13:24:59.195Z,2.00
2017-12-29T13:27:26.709Z,2.00
2017-12-29T13:29:54.215Z,2.00
2017-12-29T13:32:21.738Z,1.90
2017-12-29T13:34:49.238Z,1.90
2017-12-29T13:37:16.746Z,2.00
2017-12-29T13:39:44.268Z,1.90
2017-12-29T13:42:11.768Z,2.00
2017-12-29T13:44:39.286Z,2.00
2017-12-29T13:47:06.798Z,2.00
2017-12-29T13:49:34.298Z,2.00
2017-12-29T13:52:01.840Z,1.80
2017-12-29T13:54:29.332Z,1.80
2017-12-29T13:56:56.840Z,1.80
2017-12-29T13:59:24.336Z,1.80
2017-12-29T14:01:51.900Z,1.90
2017-12-29T14:04:19.440Z,1.80
2017-12-29T14:06:46.929Z,1.80
2017-12-29T14:09:14.439Z,1.90
2017-12-29T14:11:41.927Z,1.80
2017-12-29T14:14:09.431Z,1.80
2017-12-29T14:16:36.952Z,1.80
2017-12-29T14:19:04.448Z,1.80
2017-12-29T14:21:32.735Z,1.70
2017-12-29T14:24:00.228Z,1.70
2017-12-29T14:26:27.717Z,1.80
2017-12-29T14:28:55.228Z,1.70
2017-12-29T14:31:22.725Z,1.80
2017-12-29T14:33:50.240Z,1.80
2017-12-29T14:36:17.741Z,1.70
2017-12-29T14:38:45.246Z,1.60
2017-12-29T14:41:12.764Z,1.60
2017-12-29T14:43:40.260Z,1.70
2017-12-29T14:46:08.640Z,1.70
2017-12-29T14:48:36.144Z,1.60
2017-12-29T14:51:03.645Z,1.70
2017-12-29T14:53:31.934Z,1.70
2017-12-29T14:55:59.436Z,1.60
2017-12-29T14:58:26.965Z,1.70
2017-12-29T15:00:54.468Z,1.70
2017-12-29T15:03:21.965Z,1.50
2017-12-29T15:05:50.257Z,1.50
2017-12-29T15:08:17.764Z,1.50
2017-12-29T15:10:45.256Z,1.60
2017-12-29T15:13:13.541Z,1.40
2017-12-29T15:15:41.808Z,1.50
2017-12-29T15:18:10.079Z,1.60
2017-12-29T15:20:38.477Z,1.50
2017-12-29T15:23:06.773Z,1.50
2017-12-29T15:25:34.295Z,1.40
2017-12-29T15:28:01.793Z,1.60
2017-12-29T15:30:29.368Z,1.60
2017-12-29T15:32:56.887Z,1.60
2017-12-29T15:35:25.144Z,1.50
2017-12-29T15:37:52.684Z,1.40
2017-12-29T15:40:20.176Z,1.40
2017-12-29T15:42:48.440Z,1.50
2017-12-29T15:45:15.985Z,1.50
2017-12-29T15:47:43.484Z,1.50
2017-12-29T15:50:11.762Z,1.40
2017-12-29T15:52:40.058Z,1.40
2017-12-29T15:55:07.560Z,1.30
2017-12-29T15:57:35.091Z,1.40
2017-12-29T16:00:03.059Z,1.30
2017-12-29T16:02:30.569Z,1.20
2017-12-29T16:04:58.068Z,1.30
2017-12-29T16:07:25.602Z,1.30
2017-12-29T16:09:53.901Z,1.30
2017-12-29T16:12:21.398Z,1.20
2017-12-29T16:14:48.892Z,1.20
2017-12-29T16:17:17.182Z,1.40
2017-12-29T16:19:45.440Z,1.40
2017-12-29T16:22:12.957Z,1.30
2017-12-29T16:24:40.488Z,1.30
2017-12-29T16:27:08.000Z,1.20
2017-12-29T16:29:35.492Z,1.30
2017-12-29T16:32:03.769Z,1.30
2017-12-29T16:34:32.032Z,1.40
2017-12-29T16:36:59.565Z,1.30
2017-12-29T16:39:27.060Z,1.40
2017-12-29T16:41:55.324Z,1.40
2017-12-29T16:44:22.872Z,1.30
2017-12-29T16:46:50.383Z,1.30
2017-12-29T16:49:17.897Z,1.20
2017-12-29T16:51:45.397Z,1.30
2017-12-29T16:54:12.900Z,1.30
2017-12-29T16:56:40.415Z,1.30
2017-12-29T16:59:07.915Z,1.20
2017-12-29T17:01:35.431Z,1.30
2017-12-29T17:04:02.925Z,1.20
2017-12-29T17:06:31.189Z,1.20
2017-12-29T17:08:58.710Z,1.10
2017-12-29T17:11:26.968Z,1.00
2017-12-29T17:13:54.481Z,0.90
2017-12-29T17:16:21.988Z,1.10
2017-12-29T17:18:49.500Z,1.00
2017-12-29T17:21:17.006Z,1.00
2017-12-29T17:23:44.504Z,0.80
2017-12-29T17:26:12.074Z,0.70
2017-12-29T17:28:40.488Z,0.70
2017-12-29T17:31:09.925Z,0.70
2017-12-29T17:33:38.256Z,0.70
2017-12-29T17:36:06.488Z,0.60
2017-12-29T17:38:34.765Z,0.60
2017-12-29T17:41:03.035Z,0.70
2017-12-29T17:43:31.868Z,0.60
2017-12-29T17:45:59.373Z,0.70
2017-12-29T17:48:26.886Z,0.80
2017-12-29T17:50:55.572Z,0.80
2017-12-29T17:53:23.081Z,0.80
2017-12-29T17:55:50.595Z,0.80
2017-12-29T17:58:18.088Z,0.70
2017-12-29T18:00:45.617Z,0.60
2017-12-29T18:03:13.112Z,0.50
2017-12-29T18:05:40.613Z,0.40
2017-12-29T18:08:08.128Z,0.40
2017-12-29T18:10:35.635Z,0.30
2017-12-29T18:13:03.166Z,0.40
2017-12-29T18:15:31.437Z,0.30
2017-12-29T18:17:58.949Z,0.20
2017-12-29T18:20:26.474Z,0.30
2017-12-29T18:22:56.149Z,0.30
2017-12-29T18:25:23.665Z,0.30
2017-12-29T18:27:51.943Z,0.40
2017-12-29T18:30:19.443Z,0.40
2017-12-29T18:32:53.442Z,0.40
2017-12-29T18:35:20.949Z,0.40
2017-12-29T18:37:50.372Z,0.40
2017-12-29T18:40:17.881Z,0.30
2017-12-29T18:42:46.248Z,0.40
2017-12-29T18:45:13.744Z,0.40
2017-12-29T18:47:43.821Z,0.30
2017-12-29T18:50:11.324Z,0.20
2017-12-29T18:52:39.624Z,0.30
2017-12-29T18:55:07.132Z,0.20
2017-12-29T18:57:34.624Z,0.30
2017-12-29T19:00:03.919Z,0.40
2017-12-29T19:02:33.565Z,0.40
2017-12-29T19:05:01.056Z,0.30
2017-12-29T19:07:28.545Z,0.50
2017-12-29T19:09:56.064Z,0.40
2017-12-29T19:12:23.555Z,0.40
2017-12-29T19:14:51.061Z,0.40
2017-12-29T19:17:18.567Z,0.50
2017-12-29T19:19:46.059Z,0.50
2017-12-29T19:22:14.330Z,0.50
2017-12-29T19:24:42.608Z,0.30
2017-12-29T19:27:10.879Z,0.40
2017-12-29T19:29:39.184Z,0.40
2017-12-29T19:32:06.680Z,0.30
2017-12-29T19:34:34.178Z,0.40
2017-12-29T19:37:02.465Z,0.30
2017-12-29T19:39:30.721Z,0.20
2017-12-29T19:41:58.220Z,0.20
2017-12-29T19:44:25.744Z,0.40
2017-12-29T19:46:53.996Z,0.50
2017-12-29T19:49:21.492Z,0.40
2017-12-29T19:51:49.776Z,0.70
2017-12-29T19:54:17.273Z,0.60
2017-12-29T19:56:44.792Z,0.60
2017-12-29T19:59:13.058Z,0.60
2017-12-29T20:01:41.322Z,0.60
2017-12-29T20:04:08.836Z,0.50
2017-12-29T20:06:36.321Z,0.70
2017-12-29T20:09:03.844Z,0.70
2017-12-29T20:11:31.355Z,0.80
2017-12-29T20:13:58.856Z,0.80
2017-12-29T20:16:26.388Z,0.80
2017-12-29T20:18:53.894Z,0.90
2017-12-29T20:21:21.381Z,0.90
2017-12-29T20:23:48.897Z,0.90
2017-12-29T20:26:16.396Z,0.90
2017-12-29T20:28:43.913Z,0.90
2017-12-29T20:31:11.412Z,0.80
2017-12-29T20:33:38.908Z,0.80
2017-12-29T20:36:07.183Z,0.80
2017-12-29T20:38:35.448Z,0.90
2017-12-29T20:41:02.972Z,0.80
2017-12-29T20:43:30.481Z,0.90
2017-12-29T20:45:58.908Z,1.00
2017-12-29T20:48:26.465Z,0.90
2017-12-29T20:50:53.975Z,1.10
2017-12-29T20:53:21.498Z,1.20
2017-12-29T20:55:48.992Z,1.20
2017-12-29T20:58:16.488Z,1.20
2017-12-29T21:00:43.998Z,1.20
2017-12-29T21:03:11.502Z,1.20
2017-12-29T21:05:39.012Z,1.10
2017-12-29T21:08:06.533Z,1.20
2017-12-29T21:10:34.034Z,1.20
2017-12-29T21:13:01.555Z,1.10
2017-12-29T21:15:29.056Z,1.10
2017-12-29T21:17:56.578Z,1.30
2017-12-29T21:20:24.086Z,1.30
2017-12-29T21:22:52.349Z,1.30
2017-12-29T21:25:19.861Z,1.20
2017-12-29T21:27:47.364Z,1.30
2017-12-29T21:30:14.853Z,1.30
2017-12-29T21:32:43.142Z,1.40
2017-12-29T21:35:10.636Z,1.30
2017-12-29T21:37:38.142Z,1.40
2017-12-29T21:40:06.424Z,1.50
2017-12-29T21:42:34.689Z,1.60
2017-12-29T21:45:02.983Z,1.50
2017-12-29T21:47:31.252Z,1.50
2017-12-29T21:49:59.519Z,1.50
2017-12-29T21:52:27.035Z,1.40
2017-12-29T21:54:54.548Z,1.50
2017-12-29T21:57:22.833Z,1.50
2017-12-29T21:59:51.100Z,1.50
2017-12-29T22:02:19.376Z,1.60
2017-12-29T22:04:47.669Z,1.60
2017-12-29T22:07:15.934Z,1.60
2017-12-29T22:09:44.216Z,1.60
2017-12-29T22:12:12.480Z,1.60
2017-12-29T22:14:39.981Z,1.50
2017-12-29T22:17:07.501Z,1.70
2017-12-29T22:19:34.997Z,1.60
2017-12-29T22:22:02.956Z,1.70
2017-12-29T22:24:30.436Z,1.70
2017-12-29T22:26:57.934Z,1.80
2017-12-29T22:29:26.260Z,1.70
2017-12-29T22:31:53.759Z,1.80
2017-12-29T22:34:21.281Z,1.70
2017-12-29T22:36:48.787Z,1.70
2017-12-29T22:39:16.294Z,1.80
2017-12-29T22:41:43.810Z,1.80
2017-12-29T22:44:11.313Z,1.80
2017-12-29T22:46:38.833Z,1.80
2017-12-29T22:49:06.343Z,1.80
2017-12-29T22:51:33.856Z,1.80
2017-12-29T22:54:01.368Z,1.80
2017-12-29T22:56:28.870Z,1.80
2017-12-29T22:58:57.251Z,1.90
2017-12-29T23:01:24.744Z,1.90
2017-12-29T23:03:52.231Z,1.90
2017-12-29T23:06:19.793Z,1.90
2017-12-29T23:08:48.055Z,1.90
2017-12-29T23:11:15.564Z,1.80
2017-12-29T23:13:43.052Z,1.80
2017-12-29T23:16:11.336Z,1.80
2017-12-29T23:18:38.838Z,1.70
2017-12-29T23:21:06.339Z,1.90
2017-12-29T23:23:34.624Z,1.90
2017-12-29T23:26:02.887Z,1.90
2017-12-29T23:28:31.168Z,2.00
2017-12-29T23:30:59.427Z,2.00
2017-12-29T23:33:26.924Z,1.90
2017-12-29T23:35:54.448Z,2.00
2017-12-29T23:38:21.951Z,2.10
2017-12-29T23:40:49.472Z,2.00
2017-12-29T23:43:17.739Z,1.90
2017-12-29T23:45:45.251Z,1.80
2017-12-29T23:48:12.753Z,1.90
2017-12-29T23:50:40.240Z,1.90
2017-12-29T23:53:08.524Z,1.80
2017-12-29T23:55:36.784Z,1.90
2017-12-29T23:58:05.054Z,1.80
